sensor_id;sensor_type;location;lat;lon;timestamp;P1;durP1;ratioP1;P2;durP2;ratioP2
62957;SDS011;49056;48.352;10.926;2023-04-24T00:04:37;1.33;;;0.62;;
62957;SDS011;49056;48.352;10.926;2023-04-24T00:10:00;0.65;;;0.50;;
62957;SDS011;49056;48.352;10.926;2023-04-24T00:15:20;0.70;;;0.40;;
62957;SDS011;49056;48.352;10.926;2023-04-24T00:20:41;0.77;;;0.60;;
62957;SDS011;49056;48.352;10.926;2023-04-24T00:26:01;0.62;;;0.47;;
62957;SDS011;49056;48.352;10.926;2023-04-24T00:31:22;1.12;;;0.45;;
62957;SDS011;49056;48.352;10.926;2023-04-24T00:36:42;0.50;;;0.40;;
62957;SDS011;49056;48.352;10.926;2023-04-24T00:42:02;0.43;;;0.40;;
62957;SDS011;49056;48.352;10.926;2023-04-24T00:47:23;1.30;;;0.50;;
62957;SDS011;49056;48.352;10.926;2023-04-24T00:52:43;0.50;;;0.30;;
62957;SDS011;49056;48.352;10.926;2023-04-24T00:58:04;0.60;;;0.43;;
62957;SDS011;49056;48.352;10.926;2023-04-24T01:03:26;0.65;;;0.30;;
62957;SDS011;49056;48.352;10.926;2023-04-24T01:08:48;0.40;;;0.40;;
62957;SDS011;49056;48.352;10.926;2023-04-24T01:14:09;0.88;;;0.40;;
62957;SDS011;49056;48.352;10.926;2023-04-24T01:19:29;1.33;;;0.60;;
62957;SDS011;49056;48.352;10.926;2023-04-24T01:24:49;1.05;;;0.50;;
62957;SDS011;49056;48.352;10.926;2023-04-24T01:30:10;0.73;;;0.50;;
62957;SDS011;49056;48.352;10.926;2023-04-24T01:35:31;1.37;;;0.68;;
62957;SDS011;49056;48.352;10.926;2023-04-24T01:40:51;0.98;;;0.50;;
62957;SDS011;49056;48.352;10.926;2023-04-24T01:46:12;0.88;;;0.50;;
62957;SDS011;49056;48.352;10.926;2023-04-24T01:51:32;0.85;;;0.50;;
62957;SDS011;49056;48.352;10.926;2023-04-24T01:56:53;0.82;;;0.30;;
62957;SDS011;49056;48.352;10.926;2023-04-24T02:02:13;0.47;;;0.30;;
62957;SDS011;49056;48.352;10.926;2023-04-24T02:07:34;0.90;;;0.40;;
62957;SDS011;49056;48.352;10.926;2023-04-24T02:12:54;0.60;;;0.40;;
62957;SDS011;49056;48.352;10.926;2023-04-24T02:18:14;1.17;;;0.70;;
62957;SDS011;49056;48.352;10.926;2023-04-24T02:23:35;0.70;;;0.43;;
62957;SDS011;49056;48.352;10.926;2023-04-24T02:28:55;0.50;;;0.40;;
62957;SDS011;49056;48.352;10.926;2023-04-24T02:34:16;0.32;;;0.30;;
62957;SDS011;49056;48.352;10.926;2023-04-24T02:39:36;1.62;;;0.37;;
62957;SDS011;49056;48.352;10.926;2023-04-24T02:44:56;0.32;;;0.20;;
62957;SDS011;49056;48.352;10.926;2023-04-24T02:50:17;0.73;;;0.30;;
62957;SDS011;49056;48.352;10.926;2023-04-24T02:55:37;1.50;;;0.57;;
62957;SDS011;49056;48.352;10.926;2023-04-24T03:00:57;0.70;;;0.30;;
62957;SDS011;49056;48.352;10.926;2023-04-24T03:06:17;0.60;;;0.40;;
62957;SDS011;49056;48.352;10.926;2023-04-24T03:11:38;0.37;;;0.20;;
62957;SDS011;49056;48.352;10.926;2023-04-24T03:16:58;0.65;;;0.40;;
62957;SDS011;49056;48.352;10.926;2023-04-24T03:22:19;0.47;;;0.27;;
62957;SDS011;49056;48.352;10.926;2023-04-24T03:27:39;0.30;;;0.30;;
62957;SDS011;49056;48.352;10.926;2023-04-24T03:32:59;0.27;;;0.13;;
62957;SDS011;49056;48.352;10.926;2023-04-24T03:38:20;0.43;;;0.25;;
62957;SDS011;49056;48.352;10.926;2023-04-24T03:43:40;0.30;;;0.20;;
62957;SDS011;49056;48.352;10.926;2023-04-24T03:49:00;0.70;;;0.40;;
62957;SDS011;49056;48.352;10.926;2023-04-24T03:54:20;0.70;;;0.40;;
62957;SDS011;49056;48.352;10.926;2023-04-24T03:59:41;1.02;;;0.45;;
62957;SDS011;49056;48.352;10.926;2023-04-24T04:05:01;0.40;;;0.30;;
62957;SDS011;49056;48.352;10.926;2023-04-24T04:10:22;0.88;;;0.28;;
62957;SDS011;49056;48.352;10.926;2023-04-24T04:15:42;0.35;;;0.30;;
62957;SDS011;49056;48.352;10.926;2023-04-24T04:21:02;0.52;;;0.22;;
62957;SDS011;49056;48.352;10.926;2023-04-24T04:26:23;0.50;;;0.20;;
62957;SDS011;49056;48.352;10.926;2023-04-24T04:31:45;0.20;;;0.20;;
62957;SDS011;49056;48.352;10.926;2023-04-24T04:37:05;0.20;;;0.20;;
62957;SDS011;49056;48.352;10.926;2023-04-24T04:42:26;0.30;;;0.30;;
62957;SDS011;49056;48.352;10.926;2023-04-24T04:47:47;0.40;;;0.37;;
62957;SDS011;49056;48.352;10.926;2023-04-24T04:53:07;0.10;;;0.10;;
62957;SDS011;49056;48.352;10.926;2023-04-24T04:58:28;0.60;;;0.20;;
62957;SDS011;49056;48.352;10.926;2023-04-24T05:03:48;0.85;;;0.30;;
62957;SDS011;49056;48.352;10.926;2023-04-24T05:09:08;0.88;;;0.15;;
62957;SDS011;49056;48.352;10.926;2023-04-24T05:14:28;0.40;;;0.22;;
62957;SDS011;49056;48.352;10.926;2023-04-24T05:19:49;0.40;;;0.10;;
62957;SDS011;49056;48.352;10.926;2023-04-24T05:25:09;1.08;;;0.28;;
62957;SDS011;49056;48.352;10.926;2023-04-24T05:30:29;0.73;;;0.30;;
62957;SDS011;49056;48.352;10.926;2023-04-24T05:35:50;0.25;;;0.17;;
62957;SDS011;49056;48.352;10.926;2023-04-24T05:41:10;0.53;;;0.30;;
62957;SDS011;49056;48.352;10.926;2023-04-24T05:46:31;0.10;;;0.10;;
62957;SDS011;49056;48.352;10.926;2023-04-24T05:51:51;0.40;;;0.30;;
62957;SDS011;49056;48.352;10.926;2023-04-24T05:57:11;0.40;;;0.25;;
62957;SDS011;49056;48.352;10.926;2023-04-24T06:02:31;1.77;;;0.25;;
62957;SDS011;49056;48.352;10.926;2023-04-24T06:07:52;0.30;;;0.28;;
62957;SDS011;49056;48.352;10.926;2023-04-24T06:13:12;0.37;;;0.20;;
62957;SDS011;49056;48.352;10.926;2023-04-24T06:18:33;0.40;;;0.20;;
62957;SDS011;49056;48.352;10.926;2023-04-24T06:23:53;0.30;;;0.30;;
62957;SDS011;49056;48.352;10.926;2023-04-24T06:29:14;0.43;;;0.30;;
62957;SDS011;49056;48.352;10.926;2023-04-24T06:34:34;0.90;;;0.30;;
62957;SDS011;49056;48.352;10.926;2023-04-24T06:39:55;0.17;;;0.17;;
62957;SDS011;49056;48.352;10.926;2023-04-24T06:45:15;0.20;;;0.20;;
62957;SDS011;49056;48.352;10.926;2023-04-24T06:50:36;4.00;;;0.30;;
62957;SDS011;49056;48.352;10.926;2023-04-24T06:55:56;0.20;;;0.20;;
62957;SDS011;49056;48.352;10.926;2023-04-24T07:01:16;0.37;;;0.20;;
62957;SDS011;49056;48.352;10.926;2023-04-24T07:06:37;0.35;;;0.25;;
62957;SDS011;49056;48.352;10.926;2023-04-24T07:11:57;0.60;;;0.30;;
62957;SDS011;49056;48.352;10.926;2023-04-24T07:17:18;0.43;;;0.20;;
62957;SDS011;49056;48.352;10.926;2023-04-24T07:22:38;0.67;;;0.30;;
62957;SDS011;49056;48.352;10.926;2023-04-24T07:27:58;0.40;;;0.25;;
62957;SDS011;49056;48.352;10.926;2023-04-24T07:33:19;0.50;;;0.13;;
62957;SDS011;49056;48.352;10.926;2023-04-24T07:38:39;0.73;;;0.20;;
62957;SDS011;49056;48.352;10.926;2023-04-24T07:43:59;0.43;;;0.20;;
62957;SDS011;49056;48.352;10.926;2023-04-24T07:49:20;0.10;;;0.10;;
62957;SDS011;49056;48.352;10.926;2023-04-24T07:54:40;0.25;;;0.10;;
62957;SDS011;49056;48.352;10.926;2023-04-24T08:00:00;0.82;;;0.17;;
62957;SDS011;49056;48.352;10.926;2023-04-24T08:05:21;0.45;;;0.30;;
62957;SDS011;49056;48.352;10.926;2023-04-24T08:10:41;0.20;;;0.20;;
62957;SDS011;49056;48.352;10.926;2023-04-24T08:16:01;0.10;;;0.10;;
62957;SDS011;49056;48.352;10.926;2023-04-24T08:21:22;0.40;;;0.23;;
62957;SDS011;49056;48.352;10.926;2023-04-24T08:26:42;0.40;;;0.30;;
62957;SDS011;49056;48.352;10.926;2023-04-24T08:32:02;0.10;;;0.10;;
62957;SDS011;49056;48.352;10.926;2023-04-24T08:37:23;0.55;;;0.30;;
62957;SDS011;49056;48.352;10.926;2023-04-24T08:42:44;0.50;;;0.30;;
62957;SDS011;49056;48.352;10.926;2023-04-24T08:48:04;0.30;;;0.10;;
62957;SDS011;49056;48.352;10.926;2023-04-24T08:53:25;0.82;;;0.20;;
62957;SDS011;49056;48.352;10.926;2023-04-24T08:58:46;0.50;;;0.20;;
62957;SDS011;49056;48.352;10.926;2023-04-24T09:04:07;0.70;;;0.40;;
62957;SDS011;49056;48.352;10.926;2023-04-24T09:09:30;0.10;;;0.10;;
62957;SDS011;49056;48.352;10.926;2023-04-24T09:14:51;0.40;;;0.28;;
62957;SDS011;49056;48.352;10.926;2023-04-24T09:20:12;0.60;;;0.30;;
62957;SDS011;49056;48.352;10.926;2023-04-24T09:25:32;0.82;;;0.40;;
62957;SDS011;49056;48.352;10.926;2023-04-24T09:31:02;0.57;;;0.30;;
62957;SDS011;49056;48.352;10.926;2023-04-24T09:41:53;0.57;;;0.35;;
62957;SDS011;49056;48.352;10.926;2023-04-24T09:47:13;0.30;;;0.30;;
62957;SDS011;49056;48.352;10.926;2023-04-24T09:52:33;0.40;;;0.35;;
62957;SDS011;49056;48.352;10.926;2023-04-24T09:57:58;0.40;;;0.37;;
62957;SDS011;49056;48.352;10.926;2023-04-24T10:03:20;0.62;;;0.30;;
62957;SDS011;49056;48.352;10.926;2023-04-24T10:08:40;0.20;;;0.20;;
62957;SDS011;49056;48.352;10.926;2023-04-24T10:14:00;1.10;;;0.50;;
62957;SDS011;49056;48.352;10.926;2023-04-24T10:19:21;0.60;;;0.40;;
62957;SDS011;49056;48.352;10.926;2023-04-24T10:24:43;0.75;;;0.47;;
62957;SDS011;49056;48.352;10.926;2023-04-24T10:30:04;0.65;;;0.40;;
62957;SDS011;49056;48.352;10.926;2023-04-24T10:35:25;0.52;;;0.37;;
62957;SDS011;49056;48.352;10.926;2023-04-24T10:40:46;1.27;;;0.57;;
62957;SDS011;49056;48.352;10.926;2023-04-24T10:46:07;0.88;;;0.60;;
62957;SDS011;49056;48.352;10.926;2023-04-24T11:02:45;0.50;;;0.35;;
62957;SDS011;49056;48.352;10.926;2023-04-24T11:30:00;1.20;;;0.50;;
62957;SDS011;49056;48.352;10.926;2023-04-24T11:35:22;0.45;;;0.30;;
62957;SDS011;49056;48.352;10.926;2023-04-24T11:40:44;0.65;;;0.40;;
62957;SDS011;49056;48.352;10.926;2023-04-24T11:46:05;0.37;;;0.30;;
62957;SDS011;49056;48.352;10.926;2023-04-24T11:51:26;0.90;;;0.52;;
62957;SDS011;49056;48.352;10.926;2023-04-24T11:56:47;0.57;;;0.40;;
62957;SDS011;49056;48.352;10.926;2023-04-24T12:02:08;0.40;;;0.40;;
62957;SDS011;49056;48.352;10.926;2023-04-24T12:07:28;1.23;;;0.83;;
62957;SDS011;49056;48.352;10.926;2023-04-24T12:12:49;1.50;;;0.57;;
62957;SDS011;49056;48.352;10.926;2023-04-24T12:18:11;0.77;;;0.40;;
62957;SDS011;49056;48.352;10.926;2023-04-24T12:23:33;0.70;;;0.55;;
62957;SDS011;49056;48.352;10.926;2023-04-24T12:28:53;0.70;;;0.50;;
62957;SDS011;49056;48.352;10.926;2023-04-24T12:34:20;1.48;;;0.57;;
62957;SDS011;49056;48.352;10.926;2023-04-24T12:39:46;0.45;;;0.35;;
62957;SDS011;49056;48.352;10.926;2023-04-24T12:45:17;0.62;;;0.50;;
62957;SDS011;49056;48.352;10.926;2023-04-24T12:50:38;2.17;;;0.80;;
62957;SDS011;49056;48.352;10.926;2023-04-24T12:55:58;1.90;;;0.50;;
62957;SDS011;49056;48.352;10.926;2023-04-24T13:01:19;0.47;;;0.23;;
62957;SDS011;49056;48.352;10.926;2023-04-24T13:06:39;0.62;;;0.40;;
62957;SDS011;49056;48.352;10.926;2023-04-24T13:11:59;0.52;;;0.40;;
62957;SDS011;49056;48.352;10.926;2023-04-24T13:17:21;0.73;;;0.43;;
62957;SDS011;49056;48.352;10.926;2023-04-24T13:22:41;0.82;;;0.52;;
62957;SDS011;49056;48.352;10.926;2023-04-24T13:28:01;2.05;;;0.60;;
62957;SDS011;49056;48.352;10.926;2023-04-24T13:33:22;1.30;;;0.62;;
62957;SDS011;49056;48.352;10.926;2023-04-24T13:38:43;0.93;;;0.50;;
62957;SDS011;49056;48.352;10.926;2023-04-24T13:44:04;0.57;;;0.40;;
62957;SDS011;49056;48.352;10.926;2023-04-24T13:49:24;1.25;;;0.70;;
62957;SDS011;49056;48.352;10.926;2023-04-24T13:54:45;0.62;;;0.50;;
62957;SDS011;49056;48.352;10.926;2023-04-24T14:00:06;0.70;;;0.47;;
62957;SDS011;49056;48.352;10.926;2023-04-24T14:05:26;0.90;;;0.37;;
62957;SDS011;49056;48.352;10.926;2023-04-24T14:10:47;0.98;;;0.50;;
62957;SDS011;49056;48.352;10.926;2023-04-24T14:16:07;0.68;;;0.37;;
62957;SDS011;49056;48.352;10.926;2023-04-24T14:21:27;2.42;;;0.55;;
62957;SDS011;49056;48.352;10.926;2023-04-24T14:26:48;0.80;;;0.30;;
62957;SDS011;49056;48.352;10.926;2023-04-24T14:32:08;0.70;;;0.40;;
62957;SDS011;49056;48.352;10.926;2023-04-24T14:37:29;0.37;;;0.32;;
62957;SDS011;49056;48.352;10.926;2023-04-24T14:42:50;1.73;;;0.60;;
62957;SDS011;49056;48.352;10.926;2023-04-24T14:48:10;1.13;;;0.60;;
62957;SDS011;49056;48.352;10.926;2023-04-24T14:53:31;1.37;;;0.45;;
62957;SDS011;49056;48.352;10.926;2023-04-24T14:58:51;0.68;;;0.40;;
62957;SDS011;49056;48.352;10.926;2023-04-24T15:04:12;1.13;;;0.40;;
62957;SDS011;49056;48.352;10.926;2023-04-24T15:09:32;1.35;;;0.55;;
62957;SDS011;49056;48.352;10.926;2023-04-24T15:14:52;0.50;;;0.50;;
62957;SDS011;49056;48.352;10.926;2023-04-24T15:20:13;1.13;;;0.43;;
62957;SDS011;49056;48.352;10.926;2023-04-24T15:25:33;0.62;;;0.40;;
62957;SDS011;49056;48.352;10.926;2023-04-24T15:30:53;0.77;;;0.30;;
62957;SDS011;49056;48.352;10.926;2023-04-24T15:36:13;0.40;;;0.40;;
62957;SDS011;49056;48.352;10.926;2023-04-24T15:41:34;1.02;;;0.60;;
62957;SDS011;49056;48.352;10.926;2023-04-24T15:46:55;0.63;;;0.40;;
62957;SDS011;49056;48.352;10.926;2023-04-24T15:52:15;0.68;;;0.40;;
62957;SDS011;49056;48.352;10.926;2023-04-24T15:57:35;1.70;;;0.90;;
62957;SDS011;49056;48.352;10.926;2023-04-24T16:02:56;0.93;;;0.53;;
62957;SDS011;49056;48.352;10.926;2023-04-24T16:08:16;0.33;;;0.30;;
62957;SDS011;49056;48.352;10.926;2023-04-24T16:13:36;0.97;;;0.73;;
62957;SDS011;49056;48.352;10.926;2023-04-24T16:18:57;1.25;;;0.68;;
62957;SDS011;49056;48.352;10.926;2023-04-24T16:24:17;1.12;;;0.55;;
62957;SDS011;49056;48.352;10.926;2023-04-24T16:29:37;2.53;;;1.20;;
62957;SDS011;49056;48.352;10.926;2023-04-24T16:34:58;1.75;;;1.05;;
62957;SDS011;49056;48.352;10.926;2023-04-24T16:40:19;0.85;;;0.60;;
62957;SDS011;49056;48.352;10.926;2023-04-24T16:45:39;0.88;;;0.50;;
62957;SDS011;49056;48.352;10.926;2023-04-24T16:51:00;1.45;;;0.50;;
62957;SDS011;49056;48.352;10.926;2023-04-24T16:56:20;0.90;;;0.60;;
62957;SDS011;49056;48.352;10.926;2023-04-24T17:01:40;1.30;;;0.65;;
62957;SDS011;49056;48.352;10.926;2023-04-24T17:07:01;1.45;;;0.82;;
62957;SDS011;49056;48.352;10.926;2023-04-24T17:12:21;1.13;;;0.30;;
62957;SDS011;49056;48.352;10.926;2023-04-24T17:17:41;0.98;;;0.60;;
62957;SDS011;49056;48.352;10.926;2023-04-24T17:23:03;1.27;;;0.62;;
62957;SDS011;49056;48.352;10.926;2023-04-24T17:28:27;0.85;;;0.55;;
62957;SDS011;49056;48.352;10.926;2023-04-24T17:33:48;0.52;;;0.45;;
62957;SDS011;49056;48.352;10.926;2023-04-24T17:39:08;1.40;;;0.60;;
62957;SDS011;49056;48.352;10.926;2023-04-24T17:44:29;1.42;;;0.75;;
62957;SDS011;49056;48.352;10.926;2023-04-24T17:49:49;0.90;;;0.60;;
62957;SDS011;49056;48.352;10.926;2023-04-24T17:55:11;1.25;;;0.62;;
62957;SDS011;49056;48.352;10.926;2023-04-24T18:00:31;1.35;;;0.95;;
62957;SDS011;49056;48.352;10.926;2023-04-24T18:05:52;1.48;;;0.75;;
62957;SDS011;49056;48.352;10.926;2023-04-24T18:11:13;1.25;;;0.80;;
62957;SDS011;49056;48.352;10.926;2023-04-24T18:16:33;0.80;;;0.60;;
62957;SDS011;49056;48.352;10.926;2023-04-24T18:21:53;1.20;;;0.70;;
62957;SDS011;49056;48.352;10.926;2023-04-24T18:27:14;1.23;;;0.77;;
62957;SDS011;49056;48.352;10.926;2023-04-24T18:32:34;2.20;;;1.10;;
62957;SDS011;49056;48.352;10.926;2023-04-24T18:37:55;1.23;;;0.80;;
62957;SDS011;49056;48.352;10.926;2023-04-24T18:43:15;1.15;;;0.80;;
62957;SDS011;49056;48.352;10.926;2023-04-24T18:48:35;1.23;;;0.80;;
62957;SDS011;49056;48.352;10.926;2023-04-24T18:53:55;0.73;;;0.60;;
62957;SDS011;49056;48.352;10.926;2023-04-24T18:59:16;1.25;;;0.80;;
62957;SDS011;49056;48.352;10.926;2023-04-24T19:04:37;2.72;;;1.35;;
62957;SDS011;49056;48.352;10.926;2023-04-24T19:09:57;1.10;;;0.88;;
62957;SDS011;49056;48.352;10.926;2023-04-24T19:15:17;1.90;;;1.08;;
62957;SDS011;49056;48.352;10.926;2023-04-24T19:20:38;1.50;;;1.10;;
62957;SDS011;49056;48.352;10.926;2023-04-24T19:25:58;1.48;;;0.88;;
62957;SDS011;49056;48.352;10.926;2023-04-24T19:31:18;1.77;;;1.08;;
62957;SDS011;49056;48.352;10.926;2023-04-24T19:36:38;1.65;;;1.00;;
62957;SDS011;49056;48.352;10.926;2023-04-24T19:41:59;0.60;;;0.60;;
62957;SDS011;49056;48.352;10.926;2023-04-24T19:47:21;1.75;;;0.82;;
62957;SDS011;49056;48.352;10.926;2023-04-24T19:52:41;1.58;;;0.80;;
62957;SDS011;49056;48.352;10.926;2023-04-24T19:58:02;1.37;;;0.88;;
62957;SDS011;49056;48.352;10.926;2023-04-24T20:03:22;1.50;;;0.90;;
62957;SDS011;49056;48.352;10.926;2023-04-24T20:08:42;1.45;;;0.88;;
62957;SDS011;49056;48.352;10.926;2023-04-24T20:14:03;1.40;;;0.93;;
62957;SDS011;49056;48.352;10.926;2023-04-24T20:19:24;1.45;;;0.90;;
62957;SDS011;49056;48.352;10.926;2023-04-24T20:24:44;1.85;;;0.90;;
62957;SDS011;49056;48.352;10.926;2023-04-24T20:30:05;1.30;;;0.80;;
62957;SDS011;49056;48.352;10.926;2023-04-24T20:35:25;1.67;;;0.73;;
62957;SDS011;49056;48.352;10.926;2023-04-24T20:40:46;0.70;;;0.55;;
62957;SDS011;49056;48.352;10.926;2023-04-24T20:46:06;0.80;;;0.68;;
62957;SDS011;49056;48.352;10.926;2023-04-24T20:51:27;1.33;;;0.60;;
62957;SDS011;49056;48.352;10.926;2023-04-24T20:56:47;1.70;;;0.98;;
62957;SDS011;49056;48.352;10.926;2023-04-24T21:02:07;1.98;;;1.37;;
62957;SDS011;49056;48.352;10.926;2023-04-24T21:07:28;1.40;;;0.80;;
62957;SDS011;49056;48.352;10.926;2023-04-24T21:12:48;0.93;;;0.60;;
62957;SDS011;49056;48.352;10.926;2023-04-24T21:18:09;1.87;;;0.90;;
62957;SDS011;49056;48.352;10.926;2023-04-24T21:23:29;1.12;;;0.77;;
62957;SDS011;49056;48.352;10.926;2023-04-24T21:28:50;1.83;;;0.70;;
62957;SDS011;49056;48.352;10.926;2023-04-24T21:34:10;0.70;;;0.60;;
62957;SDS011;49056;48.352;10.926;2023-04-24T21:39:30;1.17;;;0.80;;
62957;SDS011;49056;48.352;10.926;2023-04-24T21:44:51;1.00;;;0.60;;
62957;SDS011;49056;48.352;10.926;2023-04-24T21:50:11;0.85;;;0.50;;
62957;SDS011;49056;48.352;10.926;2023-04-24T21:55:31;1.27;;;0.70;;
62957;SDS011;49056;48.352;10.926;2023-04-24T22:00:52;1.40;;;0.90;;
62957;SDS011;49056;48.352;10.926;2023-04-24T22:06:12;0.82;;;0.62;;
62957;SDS011;49056;48.352;10.926;2023-04-24T22:11:33;0.52;;;0.50;;
62957;SDS011;49056;48.352;10.926;2023-04-24T22:16:55;1.08;;;0.82;;
62957;SDS011;49056;48.352;10.926;2023-04-24T22:22:17;1.92;;;0.90;;
62957;SDS011;49056;48.352;10.926;2023-04-24T22:27:37;0.90;;;0.50;;
62957;SDS011;49056;48.352;10.926;2023-04-24T22:32:57;0.93;;;0.88;;
62957;SDS011;49056;48.352;10.926;2023-04-24T22:38:17;0.73;;;0.50;;
62957;SDS011;49056;48.352;10.926;2023-04-24T22:43:38;1.37;;;0.90;;
62957;SDS011;49056;48.352;10.926;2023-04-24T22:48:58;0.57;;;0.50;;
62957;SDS011;49056;48.352;10.926;2023-04-24T22:54:18;0.98;;;0.80;;
62957;SDS011;49056;48.352;10.926;2023-04-24T22:59:39;0.97;;;0.70;;
62957;SDS011;49056;48.352;10.926;2023-04-24T23:04:59;0.67;;;0.57;;
62957;SDS011;49056;48.352;10.926;2023-04-24T23:10:20;1.12;;;0.73;;
62957;SDS011;49056;48.352;10.926;2023-04-24T23:15:40;0.75;;;0.65;;
62957;SDS011;49056;48.352;10.926;2023-04-24T23:21:01;1.70;;;0.60;;
62957;SDS011;49056;48.352;10.926;2023-04-24T23:26:22;0.95;;;0.70;;
62957;SDS011;49056;48.352;10.926;2023-04-24T23:31:42;0.98;;;0.52;;
62957;SDS011;49056;48.352;10.926;2023-04-24T23:37:03;1.25;;;0.68;;
62957;SDS011;49056;48.352;10.926;2023-04-24T23:42:23;1.50;;;0.63;;
62957;SDS011;49056;48.352;10.926;2023-04-24T23:47:43;0.83;;;0.47;;
62957;SDS011;49056;48.352;10.926;2023-04-24T23:53:04;1.35;;;0.82;;
62957;SDS011;49056;48.352;10.926;2023-04-24T23:58:24;1.30;;;0.83;;
